createdAt,value
2024-04-12T00:00:55.516Z,0
2024-04-12T00:02:09.809Z,0
2024-04-12T00:03:23.118Z,0
2024-04-12T00:04:37.411Z,0
2024-04-12T00:05:51.704Z,0
2024-04-12T00:07:05.996Z,0
2024-04-12T00:08:20.289Z,0
2024-04-12T00:09:34.582Z,0
2024-04-12T00:10:48.875Z,0
2024-04-12T00:12:03.167Z,0
2024-04-12T00:13:17.460Z,0
2024-04-12T00:14:31.753Z,0
2024-04-12T00:15:46.046Z,0
2024-04-12T00:17:00.339Z,0
2024-04-12T00:18:14.631Z,0
2024-04-12T00:19:28.924Z,0
2024-04-12T00:20:42.233Z,0
2024-04-12T00:21:56.526Z,0
2024-04-12T00:23:10.819Z,0
2024-04-12T00:24:25.111Z,0
2024-04-12T00:25:39.405Z,0
2024-04-12T00:26:53.697Z,0
2024-04-12T00:28:07.990Z,0
2024-04-12T00:29:22.283Z,0
2024-04-12T00:30:36.576Z,0
2024-04-12T00:31:50.868Z,0
2024-04-12T00:33:05.161Z,0
2024-04-12T00:34:19.454Z,0
2024-04-12T00:35:33.747Z,0
2024-04-12T00:36:47.056Z,0
2024-04-12T00:38:01.349Z,0
2024-04-12T00:39:15.642Z,0
2024-04-12T00:40:29.934Z,0
2024-04-12T00:41:44.227Z,0
2024-04-12T00:42:58.520Z,0
2024-04-12T00:44:12.813Z,0
2024-04-12T00:45:27.105Z,0
2024-04-12T00:46:41.399Z,0
2024-04-12T00:47:55.691Z,0
2024-04-12T00:49:09.984Z,0
2024-04-12T00:50:24.277Z,0
2024-04-12T00:51:38.570Z,0
2024-04-12T00:52:51.879Z,0
2024-04-12T00:55:20.464Z,0
2024-04-12T00:56:34.757Z,0
2024-04-12T00:57:49.050Z,0
2024-04-12T00:59:03.343Z,0
2024-04-12T01:00:17.636Z,0
2024-04-12T01:01:31.929Z,0
2024-04-12T01:02:46.221Z,0
2024-04-12T01:04:00.514Z,0
2024-04-12T01:05:14.807Z,0
2024-04-12T01:06:29.100Z,0
2024-04-12T01:07:43.393Z,0
2024-04-12T01:08:56.702Z,0
2024-04-12T01:10:10.995Z,0
2024-04-12T01:11:25.288Z,0
2024-04-12T01:12:39.581Z,0
2024-04-12T01:13:53.873Z,0
2024-04-12T01:15:08.166Z,0
2024-04-12T01:16:22.459Z,0
2024-04-12T01:17:36.752Z,0
2024-04-12T01:18:51.045Z,0
2024-04-12T01:20:05.338Z,0
2024-04-12T01:21:19.631Z,0
2024-04-12T01:22:33.923Z,0
2024-04-12T01:23:48.216Z,0
2024-04-12T01:25:02.509Z,0
2024-04-12T01:26:15.818Z,0
2024-04-12T01:27:30.111Z,0
2024-04-12T01:28:44.404Z,0
2024-04-12T01:29:58.697Z,0
2024-04-12T01:31:12.990Z,0
2024-04-12T01:32:27.283Z,0
2024-04-12T01:33:41.576Z,0
2024-04-12T01:34:55.868Z,0
2024-04-12T01:36:10.161Z,0
2024-04-12T01:37:24.454Z,0
2024-04-12T01:38:38.747Z,0
2024-04-12T01:39:53.040Z,0
2024-04-12T01:41:07.333Z,0
2024-04-12T01:42:20.642Z,0
2024-04-12T01:43:34.935Z,0
2024-04-12T01:44:49.228Z,0
2024-04-12T01:46:03.521Z,0
2024-04-12T01:47:17.814Z,0
2024-04-12T01:48:32.107Z,0
2024-04-12T01:49:46.399Z,0
2024-04-12T01:51:00.693Z,0
2024-04-12T01:52:14.986Z,0
2024-04-12T01:53:29.278Z,0
2024-04-12T01:57:12.157Z,0
2024-04-12T01:58:25.466Z,0
2024-04-12T01:59:39.759Z,0
2024-04-12T02:00:54.052Z,0
2024-04-12T02:02:08.345Z,0
2024-04-12T02:03:22.638Z,0
2024-04-12T02:04:36.931Z,0
2024-04-12T02:05:51.223Z,0
2024-04-12T02:07:05.516Z,0
2024-04-12T02:08:19.809Z,0
2024-04-12T02:09:34.102Z,0
2024-04-12T02:10:48.395Z,0
2024-04-12T02:12:02.688Z,0
2024-04-12T02:14:31.274Z,0
2024-04-12T02:15:44.588Z,0
2024-04-12T02:16:57.897Z,0
2024-04-12T02:18:12.190Z,0
2024-04-12T02:19:26.483Z,0
2024-04-12T02:20:40.776Z,0
2024-04-12T02:21:55.068Z,0
2024-04-12T02:23:09.361Z,0
2024-04-12T02:25:37.947Z,0
2024-04-12T02:26:52.240Z,0
2024-04-12T02:28:06.533Z,0
2024-04-12T02:29:20.826Z,0
2024-04-12T02:30:35.118Z,0
2024-04-12T02:31:49.411Z,0
2024-04-12T02:33:02.720Z,0
2024-04-12T02:34:17.013Z,0
2024-04-12T02:35:31.306Z,0
2024-04-12T02:36:45.599Z,0
2024-04-12T02:37:59.892Z,0
2024-04-12T02:39:14.185Z,0
2024-04-12T02:40:28.478Z,0
2024-04-12T02:41:41.792Z,0
2024-04-12T02:42:55.101Z,0
2024-04-12T02:44:09.394Z,0
2024-04-12T02:45:23.687Z,0
2024-04-12T02:47:52.272Z,0
2024-04-12T02:49:06.565Z,0
2024-04-12T02:50:20.858Z,0
2024-04-12T02:51:35.151Z,0
2024-04-12T02:52:49.444Z,0
2024-04-12T02:54:03.737Z,0
2024-04-12T02:55:18.029Z,0
2024-04-12T02:56:32.322Z,0
2024-04-12T02:57:46.615Z,0
2024-04-12T02:58:59.924Z,0
2024-04-12T03:01:28.510Z,0
2024-04-12T03:02:41.824Z,0
2024-04-12T03:03:55.133Z,0
2024-04-12T03:05:09.426Z,0
2024-04-12T03:06:23.718Z,0
2024-04-12T03:07:38.011Z,0
2024-04-12T03:08:52.304Z,0
2024-04-12T03:10:06.597Z,0
2024-04-12T03:11:20.890Z,0
2024-04-12T03:12:35.183Z,0
2024-04-12T03:13:49.475Z,0
2024-04-12T03:15:02.790Z,0
2024-04-12T03:16:16.099Z,0
2024-04-12T03:17:30.391Z,0
2024-04-12T03:18:44.684Z,0
2024-04-12T03:19:58.978Z,0
2024-04-12T03:21:13.271Z,0
2024-04-12T03:22:27.564Z,0
2024-04-12T03:23:40.878Z,0
2024-04-12T03:24:55.171Z,0
2024-04-12T03:26:09.464Z,0
2024-04-12T03:28:38.049Z,0
2024-04-12T03:29:52.342Z,0
2024-04-12T03:31:06.635Z,0
2024-04-12T03:32:20.928Z,0
2024-04-12T03:34:49.515Z,0
2024-04-12T03:36:02.829Z,0
2024-04-12T03:37:16.143Z,0
2024-04-12T03:38:29.457Z,0
2024-04-12T03:39:42.766Z,0
2024-04-12T03:40:57.060Z,0
2024-04-12T03:42:11.353Z,0
2024-04-12T03:43:25.646Z,0
2024-04-12T03:44:39.885Z,1
2024-04-12T03:45:54.178Z,0
2024-04-12T03:47:08.428Z,1
2024-04-12T03:48:22.667Z,1
2024-04-12T03:49:36.960Z,0
2024-04-12T03:50:50.275Z,0
2024-04-12T03:52:03.541Z,2
2024-04-12T03:53:17.780Z,1
2024-04-12T03:54:32.073Z,0
2024-04-12T03:55:46.323Z,1
2024-04-12T03:57:00.562Z,1
2024-04-12T03:58:14.801Z,3
2024-04-12T03:59:29.040Z,2
2024-04-12T04:00:43.279Z,2
2024-04-12T04:01:57.518Z,4
2024-04-12T04:03:11.757Z,3
2024-04-12T04:04:25.996Z,4
2024-04-12T04:05:40.235Z,5
2024-04-12T04:06:54.474Z,7
2024-04-12T04:08:07.729Z,9
2024-04-12T04:09:21.968Z,11
2024-04-12T04:10:36.207Z,13
2024-04-12T04:11:50.446Z,15
2024-04-12T04:13:04.685Z,17
2024-04-12T04:14:18.924Z,22
2024-04-12T04:15:32.184Z,28
2024-04-12T04:16:45.439Z,37
2024-04-12T04:17:59.678Z,49
2024-04-12T04:19:13.917Z,58
2024-04-12T04:20:28.156Z,64
2024-04-12T04:21:42.395Z,71
2024-04-12T04:22:56.634Z,79
2024-04-12T04:24:10.873Z,83
2024-04-12T04:25:25.112Z,94
2024-04-12T04:26:39.351Z,104
2024-04-12T04:27:53.590Z,110
2024-04-12T04:29:07.829Z,117
2024-04-12T04:30:22.068Z,130
2024-04-12T04:31:35.328Z,142
2024-04-12T04:32:48.583Z,150
2024-04-12T04:34:02.822Z,158
2024-04-12T04:36:31.300Z,178
2024-04-12T04:37:45.539Z,201
2024-04-12T04:38:59.778Z,223
2024-04-12T04:40:14.017Z,237
2024-04-12T04:41:28.256Z,252
2024-04-12T04:42:42.495Z,269
2024-04-12T04:43:56.734Z,290
2024-04-12T04:45:10.972Z,320
2024-04-12T04:46:25.211Z,351
2024-04-12T04:47:39.451Z,381
2024-04-12T04:48:52.706Z,409
2024-04-12T04:50:06.944Z,432
2024-04-12T04:51:21.183Z,446
2024-04-12T04:52:35.422Z,465
2024-04-12T04:53:49.661Z,480
2024-04-12T04:55:03.900Z,482
2024-04-12T04:56:18.138Z,463
2024-04-12T04:57:31.398Z,453
2024-04-12T04:58:44.659Z,441
2024-04-12T04:59:57.914Z,446
2024-04-12T05:01:12.152Z,462
2024-04-12T05:02:26.392Z,475
2024-04-12T05:03:40.630Z,514
2024-04-12T05:04:54.869Z,549
2024-04-12T05:06:09.108Z,578
2024-04-12T05:07:23.347Z,592
2024-04-12T05:08:37.586Z,614
2024-04-12T05:09:51.824Z,661
2024-04-12T05:11:06.063Z,696
2024-04-12T05:12:20.302Z,743
2024-04-12T05:13:34.541Z,775
2024-04-12T05:14:48.780Z,781
2024-04-12T05:16:02.035Z,797
2024-04-12T05:17:16.274Z,814
2024-04-12T05:18:30.512Z,820
2024-04-12T05:19:44.751Z,840
2024-04-12T05:20:58.990Z,892
2024-04-12T05:22:13.229Z,953
2024-04-12T05:23:26.489Z,1004
2024-04-12T05:24:39.744Z,1078
2024-04-12T05:25:53.983Z,1144
2024-04-12T05:27:08.222Z,1200
2024-04-12T05:28:22.460Z,1243
2024-04-12T05:29:36.699Z,1302
2024-04-12T05:30:50.938Z,1345
2024-04-12T05:32:05.177Z,1411
2024-04-12T05:33:19.415Z,1450
2024-04-12T05:34:33.654Z,1495
2024-04-12T05:35:47.893Z,1551
2024-04-12T05:37:02.132Z,1635
2024-04-12T05:38:16.370Z,1686
2024-04-12T05:39:30.609Z,1708
2024-04-12T05:40:43.864Z,1781
2024-04-12T05:41:58.103Z,1881
2024-04-12T05:43:12.341Z,1921
2024-04-12T05:44:26.580Z,1952
2024-04-12T05:45:40.819Z,1990
2024-04-12T05:46:55.058Z,2096
2024-04-12T05:48:08.318Z,2224
2024-04-12T05:49:21.573Z,2279
2024-04-12T05:50:35.812Z,2206
2024-04-12T05:51:50.050Z,2381
2024-04-12T05:53:04.289Z,2447
2024-04-12T05:54:18.528Z,2463
2024-04-12T05:56:47.005Z,2495
2024-04-12T05:58:01.244Z,2448
2024-04-12T06:00:29.722Z,2484
2024-04-12T06:01:43.960Z,2483
2024-04-12T06:02:57.220Z,2446
2024-04-12T06:04:10.475Z,2217
2024-04-12T06:05:24.714Z,2086
2024-04-12T06:06:38.953Z,1977
2024-04-12T06:07:53.191Z,1892
2024-04-12T06:09:07.430Z,1846
2024-04-12T06:10:21.669Z,1874
2024-04-12T06:11:35.908Z,1952
2024-04-12T06:14:04.385Z,2225
2024-04-12T06:15:18.624Z,2381
2024-04-12T06:16:32.862Z,2443
2024-04-12T06:19:01.340Z,2528
2024-04-12T06:20:14.600Z,2483
2024-04-12T06:21:27.854Z,2495
2024-04-12T06:22:42.093Z,2545
2024-04-12T06:23:56.332Z,2543
2024-04-12T06:25:10.571Z,2553
2024-04-12T06:26:24.809Z,2564
2024-04-12T06:27:39.048Z,2557
2024-04-12T06:30:07.525Z,2695
2024-04-12T06:31:21.764Z,2422
2024-04-12T06:32:36.002Z,2520
2024-04-12T06:33:50.241Z,2459
2024-04-12T06:35:04.480Z,2653
2024-04-12T06:36:18.719Z,2631
2024-04-12T06:37:31.973Z,2360
2024-04-12T06:38:46.212Z,1869
2024-04-12T06:41:14.689Z,2355
2024-04-12T06:42:28.928Z,1696
2024-04-12T06:44:57.406Z,2034
2024-04-12T06:46:11.644Z,1961
2024-04-12T06:47:25.883Z,3959
2024-04-12T06:48:40.121Z,4413
2024-04-12T06:49:54.360Z,3362
2024-04-12T06:51:08.599Z,5921
2024-04-12T06:53:37.077Z,4266
2024-04-12T06:54:50.332Z,5448
2024-04-12T06:56:04.571Z,2263
2024-04-12T06:57:18.809Z,5718
2024-04-12T06:59:47.286Z,18833
2024-04-12T07:01:01.525Z,16439
2024-04-12T07:02:15.763Z,8848
2024-04-12T07:03:30.002Z,4261
2024-04-12T07:04:44.240Z,10891
2024-04-12T07:05:58.479Z,4661
2024-04-12T07:07:12.718Z,2484
2024-04-12T07:08:26.956Z,13440
2024-04-12T07:09:41.195Z,5374
2024-04-12T07:10:54.450Z,4129
2024-04-12T07:12:08.688Z,4389
2024-04-12T07:13:22.927Z,5178
2024-04-12T07:14:37.165Z,3238
2024-04-12T07:17:05.642Z,6081
2024-04-12T07:18:19.881Z,2564
2024-04-12T07:19:34.119Z,7649
2024-04-12T07:20:48.358Z,4640
2024-04-12T07:22:02.596Z,2016
2024-04-12T07:23:16.835Z,6509
2024-04-12T07:24:31.073Z,5432
2024-04-12T07:25:44.333Z,6792
2024-04-12T07:28:11.832Z,5707
2024-04-12T07:29:25.087Z,4090
2024-04-12T07:30:39.326Z,7909
2024-04-12T07:31:52.586Z,3981
2024-04-12T07:33:06.826Z,3896
2024-04-12T07:35:35.303Z,3620
2024-04-12T07:36:49.542Z,4374
2024-04-12T07:38:03.780Z,5426
2024-04-12T07:40:32.257Z,5443
2024-04-12T07:41:45.517Z,5165
2024-04-12T07:42:58.771Z,5027
2024-04-12T07:44:13.010Z,4581
2024-04-12T07:45:27.248Z,4400
2024-04-12T07:46:41.487Z,4453
2024-04-12T07:47:55.726Z,3915
2024-04-12T07:49:09.964Z,3395
2024-04-12T07:50:24.203Z,1337
2024-04-12T07:51:38.441Z,4904
2024-04-12T07:52:52.679Z,5508
2024-04-12T07:54:05.939Z,2030
2024-04-12T07:56:33.432Z,5275
2024-04-12T07:57:47.671Z,3736
2024-04-12T07:59:01.909Z,4397
2024-04-12T08:00:16.147Z,4475
2024-04-12T08:01:30.386Z,4078
2024-04-12T08:02:44.624Z,5477
2024-04-12T08:03:58.862Z,2813
2024-04-12T08:06:27.339Z,3776
2024-04-12T08:07:41.577Z,3975
2024-04-12T08:08:54.837Z,3540
2024-04-12T08:10:08.096Z,3672
2024-04-12T08:12:35.595Z,3897
2024-04-12T08:17:31.565Z,4069
2024-04-12T08:18:45.803Z,4087
2024-04-12T08:20:00.042Z,3660
2024-04-12T08:22:28.519Z,3691
2024-04-12T08:23:42.757Z,3369
2024-04-12T08:24:56.996Z,4740
2024-04-12T08:26:11.234Z,5316
2024-04-12T08:28:39.711Z,2623
2024-04-12T08:29:52.966Z,6164
2024-04-12T08:32:21.443Z,16542
2024-04-12T08:33:35.681Z,22669
2024-04-12T08:34:49.920Z,30368
2024-04-12T08:36:04.158Z,6102
2024-04-12T08:37:18.396Z,29380
2024-04-12T08:38:32.635Z,22347
2024-04-12T08:39:46.873Z,8251
2024-04-12T08:41:01.111Z,6584
2024-04-12T08:42:15.350Z,10843
2024-04-12T08:43:28.610Z,7630
2024-04-12T08:44:41.865Z,3553
2024-04-12T08:45:56.103Z,6575
2024-04-12T08:47:10.342Z,17270
2024-04-12T08:48:24.580Z,14580
2024-04-12T08:49:38.819Z,26885
2024-04-12T08:50:53.057Z,7791
2024-04-12T08:52:07.296Z,19875
2024-04-12T08:53:21.534Z,20082
2024-04-12T08:54:35.773Z,13891
2024-04-12T08:55:49.033Z,17391
2024-04-12T08:57:02.288Z,18788
2024-04-12T08:59:30.765Z,14552
2024-04-12T09:00:45.003Z,19156
2024-04-12T09:01:59.242Z,7424
2024-04-12T09:03:13.480Z,27090
2024-04-12T09:04:27.719Z,4910
2024-04-12T09:05:41.957Z,17382
2024-04-12T09:06:56.196Z,10075
2024-04-12T09:08:10.435Z,4941
2024-04-12T09:09:24.673Z,6492
2024-04-12T09:11:53.150Z,11232
2024-04-12T09:13:06.410Z,4105
2024-04-12T09:15:33.904Z,6248
2024-04-12T09:16:48.143Z,6460
2024-04-12T09:18:02.381Z,7280
2024-04-12T09:19:16.620Z,6763
2024-04-12T09:20:30.859Z,5959
2024-04-12T09:21:45.097Z,7266
2024-04-12T09:22:59.336Z,8506
2024-04-12T09:24:13.575Z,6695
2024-04-12T09:25:27.813Z,12923
2024-04-12T09:26:42.052Z,5215
2024-04-12T09:27:56.291Z,6957
2024-04-12T09:29:10.530Z,6896
2024-04-12T09:30:23.784Z,6931
2024-04-12T09:31:38.023Z,6649
2024-04-12T09:32:52.262Z,6977
2024-04-12T09:34:06.501Z,7263
2024-04-12T09:35:20.740Z,7556
2024-04-12T09:36:34.979Z,6597
2024-04-12T09:37:49.217Z,14319
2024-04-12T09:39:02.478Z,5107
2024-04-12T09:40:15.738Z,5738
2024-04-12T09:41:28.993Z,6740
2024-04-12T09:42:43.231Z,11226
2024-04-12T09:43:57.470Z,9175
2024-04-12T09:48:54.425Z,10980
2024-04-12T09:50:08.664Z,8346
2024-04-12T09:51:22.903Z,8292
2024-04-12T09:52:37.142Z,11312
2024-04-12T09:53:51.381Z,8293
2024-04-12T09:55:05.619Z,11972
2024-04-12T09:56:18.879Z,14021
2024-04-12T09:57:32.134Z,15076
2024-04-12T09:58:46.374Z,12304
2024-04-12T10:01:14.852Z,15112
2024-04-12T10:02:29.090Z,4948
2024-04-12T10:03:43.329Z,3608
2024-04-12T10:04:57.568Z,3632
2024-04-12T10:06:11.807Z,3527
2024-04-12T10:08:40.284Z,3009
2024-04-12T10:09:54.522Z,3137
2024-04-12T10:11:08.761Z,3097
2024-04-12T10:12:22.999Z,3153
2024-04-12T10:13:36.254Z,3154
2024-04-12T10:14:50.493Z,3083
2024-04-12T10:16:04.731Z,3424
2024-04-12T10:18:33.209Z,3125
2024-04-12T10:21:01.686Z,3205
2024-04-12T10:22:15.925Z,3599
2024-04-12T10:23:30.163Z,4008
2024-04-12T10:24:44.402Z,3333
2024-04-12T10:25:57.661Z,2355
2024-04-12T10:27:10.916Z,3987
2024-04-12T10:29:39.393Z,4107
2024-04-12T10:30:53.632Z,3572
2024-04-12T10:32:07.870Z,3576
2024-04-12T10:33:22.109Z,3631
2024-04-12T10:34:36.348Z,2565
2024-04-12T10:35:50.586Z,3477
2024-04-12T10:37:04.824Z,4408
2024-04-12T10:38:19.063Z,4046
2024-04-12T10:39:33.302Z,4584
2024-04-12T10:40:47.540Z,4179
2024-04-12T10:42:01.778Z,4329
2024-04-12T10:44:29.271Z,5353
2024-04-12T10:46:57.748Z,5001
2024-04-12T10:48:11.987Z,5023
2024-04-12T10:49:26.225Z,4671
2024-04-12T10:50:40.464Z,4898
2024-04-12T10:51:54.702Z,4850
2024-04-12T10:53:08.941Z,4742
2024-04-12T10:54:23.179Z,4849
2024-04-12T10:55:37.417Z,4883
2024-04-12T10:56:51.657Z,4516
2024-04-12T10:58:05.895Z,4362
2024-04-12T10:59:19.150Z,4252
2024-04-12T11:00:33.388Z,4594
2024-04-12T11:01:47.627Z,5076
2024-04-12T11:04:16.104Z,4344
2024-04-12T11:05:30.342Z,4071
2024-04-12T11:06:44.581Z,4200
2024-04-12T11:07:58.820Z,3790
2024-04-12T11:09:13.058Z,3953
2024-04-12T11:10:27.296Z,4240
2024-04-12T11:11:41.535Z,3413
2024-04-12T11:12:54.795Z,3699
2024-04-12T11:14:08.050Z,3929
2024-04-12T11:15:22.288Z,3389
2024-04-12T11:16:36.526Z,3512
2024-04-12T11:17:50.765Z,3506
2024-04-12T11:19:05.003Z,3520
2024-04-12T11:20:19.241Z,3352
2024-04-12T11:21:33.480Z,3577
2024-04-12T11:22:47.718Z,3254
2024-04-12T11:24:01.957Z,3445
2024-04-12T11:25:15.217Z,3381
2024-04-12T11:26:28.471Z,3449
2024-04-12T11:27:42.710Z,3246
2024-04-12T11:28:56.948Z,3270
2024-04-12T11:30:11.186Z,3181
2024-04-12T11:31:25.425Z,3036
2024-04-12T11:32:39.663Z,3003
2024-04-12T11:33:53.901Z,3039
2024-04-12T11:35:08.140Z,2886
2024-04-12T11:36:22.379Z,2834
2024-04-12T11:37:36.617Z,2897
2024-04-12T11:38:50.855Z,3113
2024-04-12T11:40:04.115Z,2902
2024-04-12T11:41:18.354Z,3081
2024-04-12T11:42:32.592Z,3118
2024-04-12T11:43:46.831Z,3096
2024-04-12T11:45:01.069Z,2968
2024-04-12T11:46:15.308Z,2961
2024-04-12T11:47:29.546Z,3204
2024-04-12T11:48:43.785Z,3327
2024-04-12T11:49:58.023Z,3320
2024-04-12T11:51:12.262Z,3200
2024-04-12T11:52:26.500Z,3202
2024-04-12T11:53:40.739Z,3166
2024-04-12T11:54:54.977Z,3294
2024-04-12T11:56:08.232Z,3283
2024-04-12T11:57:22.470Z,3283
2024-04-12T11:59:50.947Z,3160
2024-04-12T12:01:05.186Z,3081
2024-04-12T12:02:19.424Z,2994
2024-04-12T12:03:33.662Z,2998
2024-04-12T12:04:47.901Z,2837
2024-04-12T12:06:02.139Z,2825
2024-04-12T12:07:16.378Z,2972
2024-04-12T12:08:30.616Z,2804
2024-04-12T12:09:44.855Z,2932
2024-04-12T12:10:59.093Z,2961
2024-04-12T12:12:12.348Z,2897
2024-04-12T12:13:26.586Z,2980
2024-04-12T12:14:40.825Z,2985
2024-04-12T12:15:55.063Z,2927
2024-04-12T12:17:09.302Z,2852
2024-04-12T12:18:23.540Z,2766
2024-04-12T12:19:37.779Z,2597
2024-04-12T12:20:52.018Z,2569
2024-04-12T12:22:06.256Z,2600
2024-04-12T12:23:20.495Z,2298
2024-04-12T12:24:34.733Z,2495
2024-04-12T12:25:48.972Z,2400
2024-04-12T12:27:03.210Z,2521
2024-04-12T12:28:16.465Z,2281
2024-04-12T12:29:30.704Z,2364
2024-04-12T12:30:44.942Z,2442
2024-04-12T12:31:59.181Z,2418
2024-04-12T12:33:13.419Z,2562
2024-04-12T12:34:27.658Z,2387
2024-04-12T12:35:41.896Z,2215
2024-04-12T12:36:56.135Z,2169
2024-04-12T12:38:10.373Z,2117
2024-04-12T12:39:24.611Z,2155
2024-04-12T12:40:38.850Z,2089
2024-04-12T12:41:53.088Z,2069
2024-04-12T12:43:07.327Z,2058
2024-04-12T12:44:20.581Z,2192
2024-04-12T12:45:34.820Z,2156
2024-04-12T12:46:49.058Z,2075
2024-04-12T12:48:03.296Z,2114
2024-04-12T12:49:17.535Z,1968
2024-04-12T12:50:31.774Z,2166
2024-04-12T12:51:46.013Z,2104
2024-04-12T12:53:00.251Z,2155
2024-04-12T12:54:14.489Z,2063
2024-04-12T12:55:28.727Z,1940
2024-04-12T12:56:42.966Z,2167
2024-04-12T12:57:57.204Z,2120
2024-04-12T12:59:11.442Z,1821
2024-04-12T13:00:24.697Z,1930
2024-04-12T13:01:38.935Z,1823
2024-04-12T13:02:53.173Z,1937
2024-04-12T13:04:07.411Z,1719
2024-04-12T13:05:21.650Z,1857
2024-04-12T13:06:35.888Z,1924
2024-04-12T13:07:50.126Z,1907
2024-04-12T13:09:04.364Z,1993
2024-04-12T13:10:18.602Z,2099
2024-04-12T13:11:32.840Z,2064
2024-04-12T13:12:47.079Z,2387
2024-04-12T13:14:01.317Z,2159
2024-04-12T13:15:15.555Z,2010
2024-04-12T13:16:28.810Z,1832
2024-04-12T13:17:43.048Z,2268
2024-04-12T13:18:57.286Z,2288
2024-04-12T13:20:11.524Z,2457
2024-04-12T13:21:25.763Z,2058
2024-04-12T13:22:40.001Z,2124
2024-04-12T13:23:54.239Z,2245
2024-04-12T13:25:08.478Z,2298
2024-04-12T13:26:22.716Z,2288
2024-04-12T13:27:36.955Z,2221
2024-04-12T13:28:51.193Z,2169
2024-04-12T13:30:05.431Z,2209
2024-04-12T13:31:19.670Z,2161
2024-04-12T13:32:32.924Z,2079
2024-04-12T13:33:47.162Z,2082
2024-04-12T13:35:01.401Z,2069
2024-04-12T13:36:15.639Z,2106
2024-04-12T13:37:29.877Z,2123
2024-04-12T13:38:44.115Z,2013
2024-04-12T13:39:58.354Z,2091
2024-04-12T13:41:12.592Z,2072
2024-04-12T13:42:26.830Z,2006
2024-04-12T13:43:41.068Z,2030
2024-04-12T13:44:55.307Z,2080
2024-04-12T13:46:09.546Z,2091
2024-04-12T13:47:23.784Z,2127
2024-04-12T13:48:37.038Z,2184
2024-04-12T13:49:51.277Z,2195
2024-04-12T13:51:05.515Z,2283
2024-04-12T13:52:19.753Z,2056
2024-04-12T13:53:33.993Z,1974
2024-04-12T13:54:48.231Z,1976
2024-04-12T13:56:02.470Z,2018
2024-04-12T13:57:16.709Z,1998
2024-04-12T13:58:30.947Z,2030
2024-04-12T13:59:45.185Z,1917
2024-04-12T14:00:59.424Z,1983
2024-04-12T14:02:13.662Z,1946
2024-04-12T14:03:27.900Z,1987
2024-04-12T14:04:41.155Z,1973
2024-04-12T14:05:55.393Z,1998
2024-04-12T14:07:09.631Z,2028
2024-04-12T14:08:23.869Z,2064
2024-04-12T14:09:38.108Z,2052
2024-04-12T14:10:52.346Z,2059
2024-04-12T14:12:06.584Z,2059
2024-04-12T14:14:35.061Z,2169
2024-04-12T14:15:49.300Z,2181
2024-04-12T14:18:17.777Z,2271
2024-04-12T14:20:46.254Z,2221
2024-04-12T14:21:59.514Z,2180
2024-04-12T14:24:27.007Z,2107
2024-04-12T14:25:41.246Z,2081
2024-04-12T14:26:55.485Z,2083
2024-04-12T14:28:09.724Z,2034
2024-04-12T14:29:23.963Z,2034
2024-04-12T14:30:38.202Z,1984
2024-04-12T14:31:52.440Z,1935
2024-04-12T14:33:06.679Z,1959
2024-04-12T14:34:20.918Z,1839
2024-04-12T14:35:35.156Z,1880
2024-04-12T14:36:49.395Z,1825
2024-04-12T14:38:03.633Z,1810
2024-04-12T14:39:16.888Z,1849
2024-04-12T14:40:31.127Z,1714
2024-04-12T14:41:45.366Z,1769
2024-04-12T14:42:59.604Z,1798
2024-04-12T14:44:13.843Z,1768
2024-04-12T14:45:28.082Z,1704
2024-04-12T14:46:42.320Z,1703
2024-04-12T14:47:55.580Z,1780
2024-04-12T14:49:08.835Z,1695
2024-04-12T14:50:23.074Z,1752
2024-04-12T14:51:37.312Z,1624
2024-04-12T14:52:51.551Z,1632
2024-04-12T14:54:05.790Z,1709
2024-04-12T14:55:20.028Z,1680
2024-04-12T14:56:34.267Z,1771
2024-04-12T14:57:48.505Z,1742
2024-04-12T14:59:02.744Z,1865
2024-04-12T15:00:16.983Z,1809
2024-04-12T15:01:31.221Z,1939
2024-04-12T15:02:45.460Z,1942
2024-04-12T15:03:59.699Z,1940
2024-04-12T15:05:12.954Z,1890
2024-04-12T15:06:27.192Z,1922
2024-04-12T15:07:41.431Z,1996
2024-04-12T15:08:55.670Z,1907
2024-04-12T15:10:09.908Z,1952
2024-04-12T15:11:24.147Z,1929
2024-04-12T15:12:38.385Z,1784
2024-04-12T15:13:52.624Z,1868
2024-04-12T15:15:06.863Z,1852
2024-04-12T15:16:21.101Z,1791
2024-04-12T15:17:35.340Z,1894
2024-04-12T15:18:49.578Z,1810
2024-04-12T15:20:03.817Z,1805
2024-04-12T15:21:17.071Z,1927
2024-04-12T15:22:31.310Z,1885
2024-04-12T15:23:45.548Z,1941
2024-04-12T15:24:59.787Z,1914
2024-04-12T15:26:14.026Z,1943
2024-04-12T15:27:28.264Z,1945
2024-04-12T15:28:42.503Z,1953
2024-04-12T15:29:56.742Z,1944
2024-04-12T15:31:10.980Z,2042
2024-04-12T15:32:25.219Z,1985
2024-04-12T15:33:39.457Z,1954
2024-04-12T15:34:53.696Z,1926
2024-04-12T15:36:07.935Z,1896
2024-04-12T15:37:21.190Z,1892
2024-04-12T15:39:49.667Z,1708
2024-04-12T15:42:18.144Z,1724
2024-04-12T15:43:32.382Z,1678
2024-04-12T15:44:46.621Z,1619
2024-04-12T15:46:00.860Z,1556
2024-04-12T15:47:15.098Z,1558
2024-04-12T15:48:28.358Z,1536
2024-04-12T15:49:42.597Z,1529
2024-04-12T15:50:56.835Z,1559
2024-04-12T15:52:11.074Z,1568
2024-04-12T15:53:25.312Z,1565
2024-04-12T15:54:39.551Z,1542
2024-04-12T15:55:53.789Z,1551
2024-04-12T15:57:08.028Z,1565
2024-04-12T15:58:22.267Z,1500
2024-04-12T15:59:36.506Z,1554
2024-04-12T16:02:04.983Z,1601
2024-04-12T16:03:18.242Z,1551
2024-04-12T16:04:31.497Z,1525
2024-04-12T16:05:45.735Z,1507
2024-04-12T16:06:59.974Z,1502
2024-04-12T16:08:14.212Z,1506
2024-04-12T16:10:42.689Z,1471
2024-04-12T16:11:56.927Z,1470
2024-04-12T16:13:11.166Z,1470
2024-04-12T16:14:25.404Z,1480
2024-04-12T16:16:53.880Z,1440
2024-04-12T16:18:07.140Z,1423
2024-04-12T16:19:20.395Z,1388
2024-04-12T16:20:34.633Z,1354
2024-04-12T16:21:48.872Z,1310
2024-04-12T16:23:03.110Z,1271
2024-04-12T16:24:17.348Z,1263
2024-04-12T16:25:31.587Z,1260
2024-04-12T16:26:45.825Z,1254
2024-04-12T16:28:00.063Z,1230
2024-04-12T16:29:14.302Z,1213
2024-04-12T16:30:27.562Z,1213
2024-04-12T16:32:55.055Z,1210
2024-04-12T16:34:09.294Z,1210
2024-04-12T16:35:23.532Z,1212
2024-04-12T16:36:37.770Z,1218
2024-04-12T16:37:52.009Z,1221
2024-04-12T16:39:06.247Z,1213
2024-04-12T16:40:20.486Z,1197
2024-04-12T16:41:34.724Z,1183
2024-04-12T16:42:48.963Z,1174
2024-04-12T16:44:03.201Z,1171
2024-04-12T16:45:17.440Z,1153
2024-04-12T16:46:31.678Z,1148
2024-04-12T16:47:44.933Z,1117
2024-04-12T16:48:59.171Z,1066
2024-04-12T16:50:13.410Z,1019
2024-04-12T16:51:27.648Z,985
2024-04-12T16:53:56.125Z,905
2024-04-12T16:56:23.624Z,835
2024-04-12T16:57:36.884Z,828
2024-04-12T16:58:50.138Z,791
2024-04-12T17:01:18.615Z,771
2024-04-12T17:02:32.854Z,772
2024-04-12T17:03:47.092Z,724
2024-04-12T17:06:15.569Z,695
2024-04-12T17:07:29.807Z,655
2024-04-12T17:08:44.046Z,636
2024-04-12T17:09:58.284Z,664
2024-04-12T17:11:12.523Z,646
2024-04-12T17:12:26.761Z,621
2024-04-12T17:13:41.000Z,623
2024-04-12T17:14:54.254Z,609
2024-04-12T17:16:08.493Z,621
2024-04-12T17:17:22.731Z,605
2024-04-12T17:18:36.969Z,587
2024-04-12T17:19:51.208Z,571
2024-04-12T17:21:05.447Z,547
2024-04-12T17:22:19.685Z,525
2024-04-12T17:23:33.923Z,505
2024-04-12T17:24:48.162Z,510
2024-04-12T17:26:02.400Z,481
2024-04-12T17:27:15.660Z,457
2024-04-12T17:28:28.914Z,443
2024-04-12T17:29:43.153Z,417
2024-04-12T17:30:57.391Z,389
2024-04-12T17:32:11.630Z,364
2024-04-12T17:33:25.869Z,351
2024-04-12T17:34:40.107Z,334
2024-04-12T17:35:54.346Z,315
2024-04-12T17:37:08.584Z,301
2024-04-12T17:38:22.822Z,287
2024-04-12T17:39:36.082Z,263
2024-04-12T17:40:50.320Z,249
2024-04-12T17:42:03.575Z,238
2024-04-12T17:43:17.814Z,226
2024-04-12T17:44:32.052Z,216
2024-04-12T17:45:46.291Z,203
2024-04-12T17:47:00.529Z,191
2024-04-12T17:48:14.768Z,177
2024-04-12T17:49:29.006Z,163
2024-04-12T17:50:43.245Z,153
2024-04-12T17:51:57.483Z,139
2024-04-12T17:53:11.722Z,124
2024-04-12T17:54:25.961Z,110
2024-04-12T17:55:40.199Z,98
2024-04-12T17:56:54.438Z,88
2024-04-12T17:58:08.676Z,80
2024-04-12T17:59:22.915Z,71
2024-04-12T18:00:37.153Z,64
2024-04-12T18:01:50.408Z,60
2024-04-12T18:03:04.646Z,53
2024-04-12T18:04:18.885Z,48
2024-04-12T18:05:33.123Z,43
2024-04-12T18:06:47.362Z,40
2024-04-12T18:08:01.600Z,34
2024-04-12T18:09:15.838Z,30
2024-04-12T18:10:30.076Z,27